sensor_id;sensor_type;location;lat;lon;timestamp;pressure;altitude;pressure_sealevel;temperature;humidity
75699;BME280;64313;51.018;13.742;2024-01-16T00:02:09;98233.72;;;0.33;72.41
75699;BME280;64313;51.018;13.742;2024-01-16T00:04:38;98231.94;;;0.34;72.59
75699;BME280;64313;51.018;13.742;2024-01-16T00:07:05;98237.16;;;0.34;72.08
75699;BME280;64313;51.018;13.742;2024-01-16T00:09:33;98234.56;;;0.34;71.93
75699;BME280;64313;51.018;13.742;2024-01-16T00:11:58;98233.72;;;0.33;71.98
75699;BME280;64313;51.018;13.742;2024-01-16T00:14:23;98235.53;;;0.33;72.30
75699;BME280;64313;51.018;13.742;2024-01-16T00:16:49;98241.59;;;0.33;71.62
75699;BME280;64313;51.018;13.742;2024-01-16T00:19:14;98245.03;;;0.34;71.92
75699;BME280;64313;51.018;13.742;2024-01-16T00:21:40;98248.47;;;0.34;71.96
75699;BME280;64313;51.018;13.742;2024-01-16T00:24:06;98244.22;;;0.33;71.88
75699;BME280;64313;51.018;13.742;2024-01-16T00:26:32;98250.28;;;0.34;72.49
75699;BME280;64313;51.018;13.742;2024-01-16T00:28:57;98269.44;;;0.34;73.54
75699;BME280;64313;51.018;13.742;2024-01-16T00:31:22;98258.31;;;0.32;75.34
75699;BME280;64313;51.018;13.742;2024-01-16T00:33:48;98267.34;;;0.30;75.58
75699;BME280;64313;51.018;13.742;2024-01-16T00:36:14;98256.41;;;0.26;76.23
75699;BME280;64313;51.018;13.742;2024-01-16T00:38:39;98274.13;;;0.24;77.01
75699;BME280;64313;51.018;13.742;2024-01-16T00:41:04;98269.25;;;0.21;76.98
75699;BME280;64313;51.018;13.742;2024-01-16T00:43:29;98268.59;;;0.19;77.01
75699;BME280;64313;51.018;13.742;2024-01-16T00:45:55;98271.38;;;0.17;77.17
75699;BME280;64313;51.018;13.742;2024-01-16T00:48:20;98266.50;;;0.14;77.50
75699;BME280;64313;51.018;13.742;2024-01-16T00:50:46;98267.50;;;0.13;76.96
75699;BME280;64313;51.018;13.742;2024-01-16T00:53:12;98258.00;;;0.12;77.14
75699;BME280;64313;51.018;13.742;2024-01-16T00:55:37;98268.47;;;0.12;76.50
75699;BME280;64313;51.018;13.742;2024-01-16T00:58:02;98263.22;;;0.12;76.17
75699;BME280;64313;51.018;13.742;2024-01-16T01:00:28;98273.09;;;0.10;76.67
75699;BME280;64313;51.018;13.742;2024-01-16T01:02:56;98277.50;;;0.10;76.37
75699;BME280;64313;51.018;13.742;2024-01-16T01:05:21;98276.69;;;0.09;76.79
75699;BME280;64313;51.018;13.742;2024-01-16T01:07:49;98294.25;;;0.09;76.47
75699;BME280;64313;51.018;13.742;2024-01-16T01:10:15;98292.44;;;0.09;76.20
75699;BME280;64313;51.018;13.742;2024-01-16T01:12:40;98308.16;;;0.09;75.81
75699;BME280;64313;51.018;13.742;2024-01-16T01:15:06;98309.78;;;0.10;74.85
75699;BME280;64313;51.018;13.742;2024-01-16T01:17:31;98313.22;;;0.11;75.74
75699;BME280;64313;51.018;13.742;2024-01-16T01:19:56;98309.59;;;0.12;75.36
75699;BME280;64313;51.018;13.742;2024-01-16T01:22:22;98309.59;;;0.12;75.61
75699;BME280;64313;51.018;13.742;2024-01-16T01:24:47;98318.28;;;0.12;75.42
75699;BME280;64313;51.018;13.742;2024-01-16T01:27:12;98325.19;;;0.13;76.06
75699;BME280;64313;51.018;13.742;2024-01-16T01:29:38;98318.13;;;0.14;77.20
75699;BME280;64313;51.018;13.742;2024-01-16T01:32:03;98325.31;;;0.12;77.98
75699;BME280;64313;51.018;13.742;2024-01-16T01:34:28;98321.88;;;0.11;77.93
75699;BME280;64313;51.018;13.742;2024-01-16T01:36:54;98319.63;;;0.08;78.35
75699;BME280;64313;51.018;13.742;2024-01-16T01:39:22;98319.63;;;0.08;78.79
75699;BME280;64313;51.018;13.742;2024-01-16T01:41:47;98330.31;;;0.07;78.66
75699;BME280;64313;51.018;13.742;2024-01-16T01:44:13;98330.44;;;0.05;78.27
75699;BME280;64313;51.018;13.742;2024-01-16T01:46:41;98340.94;;;0.05;78.89
75699;BME280;64313;51.018;13.742;2024-01-16T01:49:07;98342.75;;;0.05;79.08
75699;BME280;64313;51.018;13.742;2024-01-16T01:51:33;98339.50;;;0.03;79.13
75699;BME280;64313;51.018;13.742;2024-01-16T01:53:59;98338.69;;;0.02;78.89
75699;BME280;64313;51.018;13.742;2024-01-16T01:56:26;98330.19;;;0.00;78.54
75699;BME280;64313;51.018;13.742;2024-01-16T01:58:54;98330.19;;;0.00;78.03
75699;BME280;64313;51.018;13.742;2024-01-16T02:01:20;98326.91;;;-0.02;77.77
75699;BME280;64313;51.018;13.742;2024-01-16T02:03:47;98329.53;;;-0.02;77.06
75699;BME280;64313;51.018;13.742;2024-01-16T02:06:14;98344.25;;;-0.01;77.49
75699;BME280;64313;51.018;13.742;2024-01-16T02:08:43;98353.78;;;0.00;76.36
75699;BME280;64313;51.018;13.742;2024-01-16T02:11:09;98356.41;;;0.00;76.75
75699;BME280;64313;51.018;13.742;2024-01-16T02:13:37;98357.03;;;0.02;76.14
75699;BME280;64313;51.018;13.742;2024-01-16T02:16:03;98363.88;;;0.03;75.90
75699;BME280;64313;51.018;13.742;2024-01-16T02:18:29;98362.25;;;0.02;75.78
75699;BME280;64313;51.018;13.742;2024-01-16T02:20:59;98379.44;;;0.05;76.57
75699;BME280;64313;51.018;13.742;2024-01-16T02:23:29;98377.63;;;0.05;77.22
75699;BME280;64313;51.018;13.742;2024-01-16T02:25:54;98387.13;;;0.06;77.84
75699;BME280;64313;51.018;13.742;2024-01-16T02:28:20;98382.06;;;0.05;78.21
75699;BME280;64313;51.018;13.742;2024-01-16T02:30:45;98382.88;;;0.05;77.89
75699;BME280;64313;51.018;13.742;2024-01-16T02:33:11;98380.25;;;0.05;77.65
75699;BME280;64313;51.018;13.742;2024-01-16T02:35:36;98384.50;;;0.06;77.14
75699;BME280;64313;51.018;13.742;2024-01-16T02:38:01;98382.88;;;0.05;77.58
75699;BME280;64313;51.018;13.742;2024-01-16T02:40:27;98388.94;;;0.06;77.96
75699;BME280;64313;51.018;13.742;2024-01-16T02:42:52;98379.44;;;0.05;77.88
75699;BME280;64313;51.018;13.742;2024-01-16T02:45:18;98389.28;;;0.03;78.61
75699;BME280;64313;51.018;13.742;2024-01-16T02:47:43;98398.97;;;0.02;78.64
75699;BME280;64313;51.018;13.742;2024-01-16T02:50:08;98414.69;;;0.02;79.25
75699;BME280;64313;51.018;13.742;2024-01-16T02:52:37;98413.88;;;0.02;78.71
75699;BME280;64313;51.018;13.742;2024-01-16T02:55:02;98408.63;;;0.02;78.81
75699;BME280;64313;51.018;13.742;2024-01-16T02:57:28;98410.44;;;0.01;79.22
75699;BME280;64313;51.018;13.742;2024-01-16T02:59:53;98407.00;;;0.01;79.43
75699;BME280;64313;51.018;13.742;2024-01-16T03:02:19;98408.16;;;-0.02;80.58
75699;BME280;64313;51.018;13.742;2024-01-16T03:04:44;98405.69;;;-0.04;79.41
75699;BME280;64313;51.018;13.742;2024-01-16T03:07:09;98420.59;;;-0.04;79.46
75699;BME280;64313;51.018;13.742;2024-01-16T03:09:34;98421.59;;;-0.05;79.10
75699;BME280;64313;51.018;13.742;2024-01-16T03:12:00;98427.84;;;-0.06;78.87
75699;BME280;64313;51.018;13.742;2024-01-16T03:14:25;98430.28;;;-0.05;78.54
75699;BME280;64313;51.018;13.742;2024-01-16T03:16:50;98430.91;;;-0.03;78.34
75699;BME280;64313;51.018;13.742;2024-01-16T03:19:16;98443.03;;;-0.02;78.25
75699;BME280;64313;51.018;13.742;2024-01-16T03:21:42;98433.22;;;0.01;77.13
75699;BME280;64313;51.018;13.742;2024-01-16T03:24:08;98444.31;;;0.03;77.30
75699;BME280;64313;51.018;13.742;2024-01-16T03:26:36;98428.59;;;0.03;76.53
75699;BME280;64313;51.018;13.742;2024-01-16T03:29:02;98440.72;;;0.04;76.27
75699;BME280;64313;51.018;13.742;2024-01-16T03:31:27;98443.97;;;0.06;75.58
75699;BME280;64313;51.018;13.742;2024-01-16T03:33:53;98444.78;;;0.06;75.41
75699;BME280;64313;51.018;13.742;2024-01-16T03:36:18;98448.06;;;0.08;75.41
75699;BME280;64313;51.018;13.742;2024-01-16T03:38:43;98456.56;;;0.10;75.38
75699;BME280;64313;51.018;13.742;2024-01-16T03:41:10;98461.63;;;0.12;75.80
75699;BME280;64313;51.018;13.742;2024-01-16T03:43:36;98465.06;;;0.12;77.26
75699;BME280;64313;51.018;13.742;2024-01-16T03:46:02;98466.88;;;0.12;78.34
75699;BME280;64313;51.018;13.742;2024-01-16T03:48:27;98464.25;;;0.12;78.35
75699;BME280;64313;51.018;13.742;2024-01-16T03:50:52;98471.31;;;0.11;79.34
75699;BME280;64313;51.018;13.742;2024-01-16T03:53:19;98464.59;;;0.09;79.39
75699;BME280;64313;51.018;13.742;2024-01-16T03:55:45;98474.28;;;0.08;79.25
75699;BME280;64313;51.018;13.742;2024-01-16T03:58:10;98477.91;;;0.07;79.26
75699;BME280;64313;51.018;13.742;2024-01-16T04:00:35;98475.28;;;0.07;79.50
75699;BME280;64313;51.018;13.742;2024-01-16T04:03:01;98477.22;;;0.05;79.58
75699;BME280;64313;51.018;13.742;2024-01-16T04:05:27;98486.91;;;0.05;79.18
75699;BME280;64313;51.018;13.742;2024-01-16T04:07:52;98476.41;;;0.05;79.51
75699;BME280;64313;51.018;13.742;2024-01-16T04:10:17;98480.03;;;0.04;79.73
75699;BME280;64313;51.018;13.742;2024-01-16T04:12:43;98489.69;;;0.03;79.55
75699;BME280;64313;51.018;13.742;2024-01-16T04:15:08;98487.06;;;0.03;79.66
75699;BME280;64313;51.018;13.742;2024-01-16T04:17:34;98496.75;;;0.03;79.43
75699;BME280;64313;51.018;13.742;2024-01-16T04:19:59;98502.16;;;0.01;79.84
75699;BME280;64313;51.018;13.742;2024-01-16T04:22:24;98513.47;;;0.02;79.42
75699;BME280;64313;51.018;13.742;2024-01-16T04:24:50;98515.09;;;0.03;79.50
75699;BME280;64313;51.018;13.742;2024-01-16T04:27:15;98509.03;;;0.02;79.18
75699;BME280;64313;51.018;13.742;2024-01-16T04:29:40;98509.84;;;0.03;79.16
75699;BME280;64313;51.018;13.742;2024-01-16T04:32:06;98510.66;;;0.03;78.94
75699;BME280;64313;51.018;13.742;2024-01-16T04:34:31;98514.09;;;0.04;78.04
75699;BME280;64313;51.018;13.742;2024-01-16T04:36:56;98510.50;;;0.05;77.43
75699;BME280;64313;51.018;13.742;2024-01-16T04:39:22;98511.31;;;0.05;77.77
75699;BME280;64313;51.018;13.742;2024-01-16T04:41:50;98505.06;;;0.06;77.23
75699;BME280;64313;51.018;13.742;2024-01-16T04:44:15;98502.44;;;0.06;76.86
75699;BME280;64313;51.018;13.742;2024-01-16T04:46:40;98512.78;;;0.08;77.17
75699;BME280;64313;51.018;13.742;2024-01-16T04:49:06;98506.56;;;0.09;76.67
75699;BME280;64313;51.018;13.742;2024-01-16T04:51:31;98518.84;;;0.08;75.84
75699;BME280;64313;51.018;13.742;2024-01-16T04:53:56;98511.63;;;0.10;75.96
75699;BME280;64313;51.018;13.742;2024-01-16T04:56:22;98515.88;;;0.11;75.75
75699;BME280;64313;51.018;13.742;2024-01-16T04:58:47;98523.56;;;0.13;75.14
75699;BME280;64313;51.018;13.742;2024-01-16T05:01:13;98521.78;;;0.13;75.38
75699;BME280;64313;51.018;13.742;2024-01-16T05:03:38;98524.22;;;0.15;75.39
75699;BME280;64313;51.018;13.742;2024-01-16T05:06:04;98523.41;;;0.14;75.42
75699;BME280;64313;51.018;13.742;2024-01-16T05:08:29;98520.78;;;0.14;75.50
75699;BME280;64313;51.018;13.742;2024-01-16T05:10:55;98513.72;;;0.15;75.96
75699;BME280;64313;51.018;13.742;2024-01-16T05:13:20;98518.16;;;0.14;75.48
75699;BME280;64313;51.018;13.742;2024-01-16T05:15:46;98521.59;;;0.15;75.39
75699;BME280;64313;51.018;13.742;2024-01-16T05:18:11;98522.59;;;0.14;74.63
75699;BME280;64313;51.018;13.742;2024-01-16T05:20:36;98520.78;;;0.14;74.19
75699;BME280;64313;51.018;13.742;2024-01-16T05:23:02;98523.41;;;0.14;74.05
75699;BME280;64313;51.018;13.742;2024-01-16T05:25:27;98533.88;;;0.14;74.09
75699;BME280;64313;51.018;13.742;2024-01-16T05:27:52;98527.66;;;0.15;73.08
75699;BME280;64313;51.018;13.742;2024-01-16T05:30:18;98535.16;;;0.18;72.46
75699;BME280;64313;51.018;13.742;2024-01-16T05:32:43;98544.69;;;0.19;73.12
75699;BME280;64313;51.018;13.742;2024-01-16T05:35:08;98550.75;;;0.20;72.09
75699;BME280;64313;51.018;13.742;2024-01-16T05:37:35;98547.13;;;0.21;72.07
75699;BME280;64313;51.018;13.742;2024-01-16T05:40:00;98540.91;;;0.22;72.11
75699;BME280;64313;51.018;13.742;2024-01-16T05:42:28;98551.38;;;0.22;72.02
75699;BME280;64313;51.018;13.742;2024-01-16T05:44:53;98538.91;;;0.24;71.75
75699;BME280;64313;51.018;13.742;2024-01-16T05:47:31;98537.28;;;0.23;72.23
75699;BME280;64313;51.018;13.742;2024-01-16T05:49:57;98543.34;;;0.23;71.83
75699;BME280;64313;51.018;13.742;2024-01-16T05:52:22;98557.44;;;0.22;71.43
75699;BME280;64313;51.018;13.742;2024-01-16T05:54:48;98559.06;;;0.23;71.31
75699;BME280;64313;51.018;13.742;2024-01-16T05:57:13;98561.53;;;0.25;71.68
75699;BME280;64313;51.018;13.742;2024-01-16T05:59:38;98570.38;;;0.24;71.35
75699;BME280;64313;51.018;13.742;2024-01-16T06:02:04;98571.19;;;0.24;72.00
75699;BME280;64313;51.018;13.742;2024-01-16T06:04:29;98568.75;;;0.23;72.68
75699;BME280;64313;51.018;13.742;2024-01-16T06:06:54;98579.22;;;0.23;72.12
75699;BME280;64313;51.018;13.742;2024-01-16T06:09:20;98583.84;;;0.21;72.71
75699;BME280;64313;51.018;13.742;2024-01-16T06:11:45;98597.75;;;0.21;72.95
75699;BME280;64313;51.018;13.742;2024-01-16T06:14:10;98599.56;;;0.21;74.56
75699;BME280;64313;51.018;13.742;2024-01-16T06:16:37;98603.31;;;0.18;76.12
75699;BME280;64313;51.018;13.742;2024-01-16T06:19:02;98600.25;;;0.15;77.26
75699;BME280;64313;51.018;13.742;2024-01-16T06:21:28;98590.91;;;0.12;77.01
75699;BME280;64313;51.018;13.742;2024-01-16T06:23:53;98605.97;;;0.10;77.63
75699;BME280;64313;51.018;13.742;2024-01-16T06:26:19;98609.78;;;0.08;77.84
75699;BME280;64313;51.018;13.742;2024-01-16T06:28:44;98609.28;;;0.04;77.62
75699;BME280;64313;51.018;13.742;2024-01-16T06:31:10;98605.03;;;0.03;77.07
75699;BME280;64313;51.018;13.742;2024-01-16T06:33:35;98610.63;;;0.00;77.18
75699;BME280;64313;51.018;13.742;2024-01-16T06:36:02;98616.00;;;-0.02;76.57
75699;BME280;64313;51.018;13.742;2024-01-16T06:38:29;98611.09;;;-0.05;76.20
75699;BME280;64313;51.018;13.742;2024-01-16T06:40:55;98625.03;;;-0.04;76.63
75699;BME280;64313;51.018;13.742;2024-01-16T06:43:20;98623.41;;;-0.05;76.19
75699;BME280;64313;51.018;13.742;2024-01-16T06:45:45;98633.06;;;-0.06;75.79
75699;BME280;64313;51.018;13.742;2024-01-16T06:48:11;98628.13;;;-0.09;76.16
75699;BME280;64313;51.018;13.742;2024-01-16T06:50:36;98634.38;;;-0.10;75.81
75699;BME280;64313;51.018;13.742;2024-01-16T06:53:01;98643.03;;;-0.09;76.35
75699;BME280;64313;51.018;13.742;2024-01-16T06:55:27;98638.97;;;-0.12;76.50
75699;BME280;64313;51.018;13.742;2024-01-16T06:57:52;98641.41;;;-0.10;76.88
75699;BME280;64313;51.018;13.742;2024-01-16T07:00:18;98652.88;;;-0.11;76.77
75699;BME280;64313;51.018;13.742;2024-01-16T07:02:43;98658.13;;;-0.11;76.15
75699;BME280;64313;51.018;13.742;2024-01-16T07:05:09;98653.69;;;-0.11;76.10
75699;BME280;64313;51.018;13.742;2024-01-16T07:07:34;98661.56;;;-0.11;75.46
75699;BME280;64313;51.018;13.742;2024-01-16T07:10:00;98655.31;;;-0.10;75.57
75699;BME280;64313;51.018;13.742;2024-01-16T07:12:25;98655.16;;;-0.08;74.22
75699;BME280;64313;51.018;13.742;2024-01-16T07:14:50;98665.63;;;-0.08;74.29
75699;BME280;64313;51.018;13.742;2024-01-16T07:17:16;98658.59;;;-0.08;73.83
75699;BME280;64313;51.018;13.742;2024-01-16T07:19:41;98668.94;;;-0.06;73.37
75699;BME280;64313;51.018;13.742;2024-01-16T07:22:07;98676.63;;;-0.05;72.24
75699;BME280;64313;51.018;13.742;2024-01-16T07:24:32;98680.69;;;-0.02;72.34
75699;BME280;64313;51.018;13.742;2024-01-16T07:26:57;98680.69;;;-0.02;72.58
75699;BME280;64313;51.018;13.742;2024-01-16T07:29:23;98684.13;;;-0.02;71.81
75699;BME280;64313;51.018;13.742;2024-01-16T07:31:48;98683.16;;;-0.01;72.19
75699;BME280;64313;51.018;13.742;2024-01-16T07:34:14;98689.25;;;0.00;71.77
75699;BME280;64313;51.018;13.742;2024-01-16T07:36:45;98696.13;;;0.01;71.28
75699;BME280;64313;51.018;13.742;2024-01-16T07:39:10;98702.81;;;0.04;70.74
75699;BME280;64313;51.018;13.742;2024-01-16T07:41:36;98707.06;;;0.05;70.61
75699;BME280;64313;51.018;13.742;2024-01-16T07:44:02;98711.50;;;0.04;70.45
75699;BME280;64313;51.018;13.742;2024-01-16T07:46:27;98707.06;;;0.05;70.27
75699;BME280;64313;51.018;13.742;2024-01-16T07:48:53;98720.00;;;0.06;69.77
75699;BME280;64313;51.018;13.742;2024-01-16T07:51:19;98720.00;;;0.06;69.57
75699;BME280;64313;51.018;13.742;2024-01-16T07:53:44;98726.09;;;0.07;69.60
75699;BME280;64313;51.018;13.742;2024-01-16T07:56:10;98739.84;;;0.09;69.89
75699;BME280;64313;51.018;13.742;2024-01-16T07:58:36;98737.22;;;0.09;69.73
75699;BME280;64313;51.018;13.742;2024-01-16T08:01:02;98740.66;;;0.09;69.90
75699;BME280;64313;51.018;13.742;2024-01-16T08:03:28;98739.84;;;0.09;69.03
75699;BME280;64313;51.018;13.742;2024-01-16T08:05:53;98750.31;;;0.09;69.14
75699;BME280;64313;51.018;13.742;2024-01-16T08:08:18;98747.72;;;0.09;69.41
75699;BME280;64313;51.018;13.742;2024-01-16T08:10:44;98746.72;;;0.10;69.36
75699;BME280;64313;51.018;13.742;2024-01-16T08:13:09;98754.41;;;0.11;69.30
75699;BME280;64313;51.018;13.742;2024-01-16T08:15:35;98761.28;;;0.12;69.13
75699;BME280;64313;51.018;13.742;2024-01-16T08:18:00;98750.81;;;0.12;69.09
75699;BME280;64313;51.018;13.742;2024-01-16T08:20:26;98759.47;;;0.13;69.96
75699;BME280;64313;51.018;13.742;2024-01-16T08:22:51;98769.97;;;0.13;68.65
75699;BME280;64313;51.018;13.742;2024-01-16T08:25:17;98761.16;;;0.14;69.51
75699;BME280;64313;51.018;13.742;2024-01-16T08:27:42;98758.53;;;0.14;68.95
75699;BME280;64313;51.018;13.742;2024-01-16T08:30:09;98759.34;;;0.14;68.88
75699;BME280;64313;51.018;13.742;2024-01-16T08:32:35;98765.22;;;0.16;69.44
75699;BME280;64313;51.018;13.742;2024-01-16T08:35:00;98761.63;;;0.17;69.50
75699;BME280;64313;51.018;13.742;2024-01-16T08:37:25;98760.63;;;0.18;69.13
75699;BME280;64313;51.018;13.742;2024-01-16T08:39:51;98771.78;;;0.20;68.65
75699;BME280;64313;51.018;13.742;2024-01-16T08:42:16;98769.19;;;0.20;69.03
75699;BME280;64313;51.018;13.742;2024-01-16T08:44:43;98779.50;;;0.22;68.21
75699;BME280;64313;51.018;13.742;2024-01-16T08:47:11;98773.91;;;0.25;68.65
75699;BME280;64313;51.018;13.742;2024-01-16T08:49:39;98785.22;;;0.25;68.19
75699;BME280;64313;51.018;13.742;2024-01-16T08:55:14;98793.41;;;0.31;68.37
75699;BME280;64313;51.018;13.742;2024-01-16T09:01:44;98809.13;;;0.31;67.91
75699;BME280;64313;51.018;13.742;2024-01-16T09:04:24;98802.09;;;0.31;68.07
75699;BME280;64313;51.018;13.742;2024-01-16T09:06:53;98807.03;;;0.34;68.41
75699;BME280;64313;51.018;13.742;2024-01-16T09:09:19;98815.72;;;0.35;68.56
75699;BME280;64313;51.018;13.742;2024-01-16T09:11:49;98815.72;;;0.35;67.82
75699;BME280;64313;51.018;13.742;2024-01-16T09:14:14;98815.72;;;0.35;68.05
75699;BME280;64313;51.018;13.742;2024-01-16T09:16:39;98814.53;;;0.37;68.12
75699;BME280;64313;51.018;13.742;2024-01-16T09:19:06;98817.16;;;0.37;67.55
75699;BME280;64313;51.018;13.742;2024-01-16T09:21:31;98817.66;;;0.41;68.29
75699;BME280;64313;51.018;13.742;2024-01-16T09:23:56;98814.38;;;0.47;68.01
75699;BME280;64313;51.018;13.742;2024-01-16T09:26:22;98819.28;;;0.50;67.60
75699;BME280;64313;51.018;13.742;2024-01-16T09:28:48;98820.63;;;0.54;68.34
75699;BME280;64313;51.018;13.742;2024-01-16T09:31:14;98823.72;;;0.58;67.75
75699;BME280;64313;51.018;13.742;2024-01-16T09:33:40;98824.56;;;0.58;67.48
75699;BME280;64313;51.018;13.742;2024-01-16T09:36:05;98825.19;;;0.60;66.94
75699;BME280;64313;51.018;13.742;2024-01-16T09:38:30;98816.34;;;0.61;67.10
75699;BME280;64313;51.018;13.742;2024-01-16T09:40:56;98830.91;;;0.64;66.37
75699;BME280;64313;51.018;13.742;2024-01-16T09:43:25;98822.91;;;0.65;67.17
75699;BME280;64313;51.018;13.742;2024-01-16T09:45:52;98813.22;;;0.66;66.31
75699;BME280;64313;51.018;13.742;2024-01-16T09:48:19;98831.25;;;0.69;67.05
75699;BME280;64313;51.018;13.742;2024-01-16T09:50:45;98823.38;;;0.69;66.16
75699;BME280;64313;51.018;13.742;2024-01-16T09:53:10;98832.88;;;0.70;66.19
75699;BME280;64313;51.018;13.742;2024-01-16T09:55:36;98824.03;;;0.71;66.53
75699;BME280;64313;51.018;13.742;2024-01-16T09:58:01;98816.66;;;0.74;66.36
75699;BME280;64313;51.018;13.742;2024-01-16T10:00:29;98820.09;;;0.75;66.16
75699;BME280;64313;51.018;13.742;2024-01-16T10:02:55;98817.97;;;0.78;66.34
75699;BME280;64313;51.018;13.742;2024-01-16T10:05:24;98817.44;;;0.83;66.98
75699;BME280;64313;51.018;13.742;2024-01-16T10:07:49;98815.47;;;0.85;66.52
75699;BME280;64313;51.018;13.742;2024-01-16T10:10:17;98814.31;;;0.88;66.24
75699;BME280;64313;51.018;13.742;2024-01-16T10:12:44;98816.78;;;0.89;65.61
75699;BME280;64313;51.018;13.742;2024-01-16T10:15:09;98820.88;;;0.92;66.31
75699;BME280;64313;51.018;13.742;2024-01-16T10:17:39;98823.69;;;0.90;65.00
75699;BME280;64313;51.018;13.742;2024-01-16T10:20:06;98821.88;;;0.91;64.86
75699;BME280;64313;51.018;13.742;2024-01-16T10:22:32;98826.94;;;0.92;65.43
75699;BME280;64313;51.018;13.742;2024-01-16T10:25:04;98824.97;;;0.94;65.86
75699;BME280;64313;51.018;13.742;2024-01-16T10:27:30;98828.22;;;0.96;65.17
75699;BME280;64313;51.018;13.742;2024-01-16T10:29:57;98831.72;;;0.97;64.95
75699;BME280;64313;51.018;13.742;2024-01-16T10:32:30;98831.53;;;0.98;65.15
75699;BME280;64313;51.018;13.742;2024-01-16T10:37:30;98830.19;;;1.02;65.02
75699;BME280;64313;51.018;13.742;2024-01-16T10:39:55;98830.84;;;1.04;64.36
75699;BME280;64313;51.018;13.742;2024-01-16T10:42:20;98842.00;;;1.06;64.18
75699;BME280;64313;51.018;13.742;2024-01-16T10:44:54;98840.38;;;1.05;63.56
75699;BME280;64313;51.018;13.742;2024-01-16T10:47:23;98834.13;;;1.06;63.35
75699;BME280;64313;51.018;13.742;2024-01-16T10:49:48;98828.69;;;1.08;63.82
75699;BME280;64313;51.018;13.742;2024-01-16T10:52:14;98835.75;;;1.07;62.73
75699;BME280;64313;51.018;13.742;2024-01-16T10:54:43;98832.31;;;1.07;62.88
75699;BME280;64313;51.018;13.742;2024-01-16T10:57:11;98835.59;;;1.09;63.09
75699;BME280;64313;51.018;13.742;2024-01-16T10:59:48;98837.56;;;1.07;63.21
75699;BME280;64313;51.018;13.742;2024-01-16T11:02:16;98838.22;;;1.09;64.03
75699;BME280;64313;51.018;13.742;2024-01-16T11:04:45;98828.56;;;1.10;63.99
75699;BME280;64313;51.018;13.742;2024-01-16T11:07:13;98831.81;;;1.12;64.36
75699;BME280;64313;51.018;13.742;2024-01-16T11:09:39;98822.78;;;1.14;64.34
75699;BME280;64313;51.018;13.742;2024-01-16T11:12:04;98828.34;;;1.19;63.93
75699;BME280;64313;51.018;13.742;2024-01-16T11:14:30;98825.53;;;1.21;63.51
75699;BME280;64313;51.018;13.742;2024-01-16T11:16:56;98822.72;;;1.22;63.79
75699;BME280;64313;51.018;13.742;2024-01-16T11:19:22;98810.91;;;1.26;63.57
75699;BME280;64313;51.018;13.742;2024-01-16T11:21:48;98826.34;;;1.29;63.56
75699;BME280;64313;51.018;13.742;2024-01-16T11:24:14;98825.19;;;1.32;63.06
75699;BME280;64313;51.018;13.742;2024-01-16T11:26:40;98823.19;;;1.34;63.18
75699;BME280;64313;51.018;13.742;2024-01-16T11:31:57;98828.13;;;1.37;62.65
75699;BME280;64313;51.018;13.742;2024-01-16T11:34:52;98830.75;;;1.37;63.25
75699;BME280;64313;51.018;13.742;2024-01-16T11:37:30;98836.00;;;1.37;62.79
75699;BME280;64313;51.018;13.742;2024-01-16T11:42:41;98830.88;;;1.44;63.37
75699;BME280;64313;51.018;13.742;2024-01-16T11:45:14;98819.38;;;1.45;63.03
75699;BME280;64313;51.018;13.742;2024-01-16T11:48:09;98822.50;;;1.48;62.83
75699;BME280;64313;51.018;13.742;2024-01-16T11:50:35;98822.50;;;1.48;62.21
75699;BME280;64313;51.018;13.742;2024-01-16T11:53:01;98818.69;;;1.51;62.42
75699;BME280;64313;51.018;13.742;2024-01-16T11:55:52;98816.69;;;1.53;62.38
75699;BME280;64313;51.018;13.742;2024-01-16T11:58:42;98815.06;;;1.52;62.48
75699;BME280;64313;51.018;13.742;2024-01-16T12:01:10;98818.50;;;1.52;61.25
75699;BME280;64313;51.018;13.742;2024-01-16T12:03:37;98827.22;;;1.53;61.23
75699;BME280;64313;51.018;13.742;2024-01-16T12:06:02;98825.41;;;1.53;61.27
75699;BME280;64313;51.018;13.742;2024-01-16T12:08:31;98829.66;;;1.54;61.13
75699;BME280;64313;51.018;13.742;2024-01-16T12:10:56;98826.41;;;1.52;61.27
75699;BME280;64313;51.018;13.742;2024-01-16T12:13:23;98826.56;;;1.51;61.04
75699;BME280;64313;51.018;13.742;2024-01-16T12:16:02;98824.94;;;1.50;61.22
75699;BME280;64313;51.018;13.742;2024-01-16T12:18:29;98831.00;;;1.50;62.01
75699;BME280;64313;51.018;13.742;2024-01-16T12:20:54;98829.38;;;1.49;62.10
75699;BME280;64313;51.018;13.742;2024-01-16T12:23:20;98818.06;;;1.49;61.42
75699;BME280;64313;51.018;13.742;2024-01-16T12:25:52;98812.81;;;1.49;62.50
75699;BME280;64313;51.018;13.742;2024-01-16T12:28:20;98816.41;;;1.48;61.76
75699;BME280;64313;51.018;13.742;2024-01-16T12:30:49;98822.50;;;1.48;61.76
75699;BME280;64313;51.018;13.742;2024-01-16T12:33:15;98825.13;;;1.48;62.17
75699;BME280;64313;51.018;13.742;2024-01-16T12:35:43;98822.50;;;1.48;61.58
75699;BME280;64313;51.018;13.742;2024-01-16T12:38:12;98818.06;;;1.49;61.56
75699;BME280;64313;51.018;13.742;2024-01-16T12:40:44;98820.84;;;1.47;61.30
75699;BME280;64313;51.018;13.742;2024-01-16T12:43:10;98824.28;;;1.48;61.80
75699;BME280;64313;51.018;13.742;2024-01-16T12:45:35;98825.13;;;1.48;61.82
75699;BME280;64313;51.018;13.742;2024-01-16T12:48:01;98810.31;;;1.47;61.60
75699;BME280;64313;51.018;13.742;2024-01-16T12:50:30;98818.38;;;1.46;61.74
75699;BME280;64313;51.018;13.742;2024-01-16T12:53:06;98810.50;;;1.46;60.78
75699;BME280;64313;51.018;13.742;2024-01-16T12:55:33;98800.16;;;1.44;61.24
75699;BME280;64313;51.018;13.742;2024-01-16T12:58:18;98801.97;;;1.44;61.50
75699;BME280;64313;51.018;13.742;2024-01-16T13:00:48;98806.25;;;1.45;61.28
75699;BME280;64313;51.018;13.742;2024-01-16T13:03:19;98805.59;;;1.43;60.74
75699;BME280;64313;51.018;13.742;2024-01-16T13:05:48;98803.94;;;1.42;60.48
75699;BME280;64313;51.018;13.742;2024-01-16T13:08:19;98802.31;;;1.41;60.88
75699;BME280;64313;51.018;13.742;2024-01-16T13:10:46;98804.94;;;1.41;61.33
75699;BME280;64313;51.018;13.742;2024-01-16T13:13:16;98793.63;;;1.40;61.47